Time;durP1;ratioP1;P1;durP2;ratioP2;P2;SDS_P1;SDS_P2;PMS_P1;PMS_P2;Temp;Humidity;BMP_temperature;BMP_pressure;BME280_temperature;BME280_humidity;BME280_pressure;Samples;Min_cycle;Max_cycle;Signal;HPM_P1;HPM_P2
2022/06/15 00:00:20;;;;;;;3.70;1.90;;;;;;;10.28;nan;102154.28;5001892;28;20061;-49
2022/06/15 00:02:47;;;;;;;6.95;2.20;;;;;;;10.25;nan;102154.72;5003820;28;20060;-49
2022/06/15 00:05:12;;;;;;;4.43;2.35;;;;;;;10.17;nan;102154.06;5006425;28;20092;-49
2022/06/15 00:07:38;;;;;;;3.97;2.10;;;;;;;10.09;nan;102152.47;5003127;28;20022;-50
2022/06/15 00:10:04;;;;;;;3.45;1.95;;;;;;;10.05;nan;102150.38;5005061;28;20518;-49
2022/06/15 00:12:29;;;;;;;2.92;1.77;;;;;;;10.07;nan;102151.84;5004077;28;20045;-49
2022/06/15 00:14:55;;;;;;;2.65;1.90;;;;;;;10.06;nan;102152.06;5005021;28;20415;-49
2022/06/15 00:17:21;;;;;;;5.88;1.85;;;;;;;10.03;nan;102147.09;5004009;28;20525;-49
2022/06/15 00:19:47;;;;;;;6.88;2.22;;;;;;;10.03;nan;102144.44;5002153;28;20034;-49
2022/06/15 00:22:12;;;;;;;2.63;2.05;;;;;;;10.01;nan;102147.31;5001631;28;20108;-50
2022/06/15 00:24:38;;;;;;;2.13;1.92;;;;;;;9.97;nan;102149.59;5000685;28;20277;-49
2022/06/15 00:27:03;;;;;;;4.40;2.35;;;;;;;9.90;nan;102145.31;5004048;28;20468;-50
2022/06/15 00:29:30;;;;;;;4.80;2.22;;;;;;;9.91;nan;102146.94;5000550;28;20037;-49
2022/06/15 00:31:56;;;;;;;5.80;2.13;;;;;;;9.88;nan;102147.38;5005403;28;20029;-49
2022/06/15 00:34:22;;;;;;;4.40;2.25;;;;;;;9.91;nan;102139.72;4997864;28;20038;-49
2022/06/15 00:36:47;;;;;;;2.95;2.03;;;;;;;9.93;nan;102145.69;5002367;28;20053;-50
2022/06/15 00:39:13;;;;;;;6.60;2.15;;;;;;;10.02;nan;102146.28;5008040;28;20072;-49
2022/06/15 00:41:38;;;;;;;6.30;2.50;;;;;;;10.05;nan;102143.19;5004092;28;20045;-51
2022/06/15 00:44:19;;;;;;;3.80;1.80;;;;;;;9.97;nan;102149.59;5009413;28;20028;-49
2022/06/15 00:46:51;;;;;;;3.13;1.88;;;;;;;9.91;nan;102150.44;5005160;28;20447;-51
2022/06/15 00:49:31;;;;;;;3.38;1.98;;;;;;;9.84;nan;102164.84;4998084;28;20026;-49
2022/06/15 00:52:10;;;;;;;1.60;1.42;;;;;;;9.77;nan;102164.88;4999673;28;20068;-49
2022/06/15 00:54:36;;;;;;;5.60;2.58;;;;;;;9.72;nan;102156.66;5000571;28;20029;-50
2022/06/15 00:57:04;;;;;;;7.70;2.67;;;;;;;9.63;nan;102156.03;4996964;28;20330;-49
2022/06/15 00:59:33;;;;;;;5.90;2.75;;;;;;;9.59;nan;102159.34;5002665;28;20351;-49
2022/06/15 01:01:59;;;;;;;4.97;3.40;;;;;;;9.56;nan;102163.25;4998576;28;20026;-49
2022/06/15 01:04:30;;;;;;;3.30;2.58;;;;;;;9.51;nan;102170.22;5003236;28;20032;-49
2022/06/15 01:07:12;;;;;;;5.35;2.65;;;;;;;9.45;nan;102169.22;4999131;28;20018;-49
2022/06/15 01:09:48;;;;;;;5.22;2.50;;;;;;;9.46;nan;102168.19;4994942;28;20061;-49
2022/06/15 01:12:46;;;;;;;5.38;2.20;;;;;;;9.41;nan;102170.66;4999393;28;20030;-49
2022/06/15 01:15:28;;;;;;;6.40;2.65;;;;;;;9.38;nan;102161.19;4996223;28;20066;-49
2022/06/15 01:18:05;;;;;;;4.72;2.67;;;;;;;9.37;nan;102158.72;4995914;28;20205;-49
2022/06/15 01:20:59;;;;;;;3.50;2.40;;;;;;;9.36;nan;102163.25;5000697;28;20042;-49
2022/06/15 01:23:52;;;;;;;6.70;2.20;;;;;;;9.30;nan;102155.22;4999380;28;20037;-49
2022/06/15 01:26:36;;;;;;;4.50;2.05;;;;;;;9.21;nan;102143.91;4994527;28;20468;-49
2022/06/15 01:29:39;;;;;;;8.32;2.78;;;;;;;9.11;nan;102151.50;5003288;28;20113;-50
2022/06/15 01:32:13;;;;;;;4.82;2.92;;;;;;;9.12;nan;102149.63;4999132;28;20087;-49
2022/06/15 01:34:55;;;;;;;4.25;2.80;;;;;;;9.08;nan;102146.56;4996920;28;20116;-49
2022/06/15 01:37:27;;;;;;;5.75;3.20;;;;;;;9.14;nan;102147.59;5002074;28;20692;-51
2022/06/15 01:40:04;;;;;;;4.75;3.22;;;;;;;9.16;nan;102146.38;5001534;28;20038;-50
2022/06/15 01:42:53;;;;;;;8.65;4.10;;;;;;;9.15;nan;102151.91;4994993;28;20058;-51
2022/06/15 01:45:21;;;;;;;7.03;3.92;;;;;;;9.21;nan;102161.81;4993652;28;20037;-50
2022/06/15 01:47:50;;;;;;;6.03;3.65;;;;;;;9.18;nan;102159.53;5000362;28;20597;-50
2022/06/15 01:50:22;;;;;;;4.40;3.33;;;;;;;9.18;nan;102160.38;5003497;28;20037;-50
2022/06/15 01:52:57;;;;;;;4.93;3.05;;;;;;;9.18;nan;102160.38;5004317;28;20033;-49
2022/06/15 01:55:27;;;;;;;;;;;;;;;9.06;nan;102152.13;5005025;28;20037;-50
2022/06/15 01:57:55;;;;;;;7.25;3.75;;;;;;;9.13;nan;102152.09;5001911;28;19972;-51
2022/06/15 02:00:21;;;;;;;7.15;3.50;;;;;;;9.17;nan;102156.03;5010968;28;20380;-50
2022/06/15 02:02:53;;;;;;;10.77;3.20;;;;;;;9.15;nan;102159.94;4999226;28;20064;-50
2022/06/15 02:05:52;;;;;;;6.72;3.10;;;;;;;9.09;nan;102157.03;5000992;28;20424;-49
2022/06/15 02:08:45;;;;;;;5.57;3.28;;;;;;;9.08;nan;102163.44;5003554;28;20045;-49
2022/06/15 02:11:37;;;;;;;5.63;3.10;;;;;;;9.10;nan;102163.22;4995728;28;20026;-50
2022/06/15 02:14:14;;;;;;;4.75;3.15;;;;;;;9.12;nan;102155.00;5000770;28;20072;-49
2022/06/15 02:17:15;;;;;;;3.67;3.10;;;;;;;9.09;nan;102165.06;4998201;28;20083;-50
2022/06/15 02:19:47;;;;;;;7.22;3.60;;;;;;;9.08;nan;102171.44;4996442;28;20030;-50
2022/06/15 02:22:19;;;;;;;4.80;3.17;;;;;;;8.99;nan;102163.84;4996261;28;20060;-49
2022/06/15 02:24:48;;;;;;;6.47;3.50;;;;;;;8.92;nan;102161.13;4994542;28;20226;-49
2022/06/15 02:27:15;;;;;;;4.97;2.92;;;;;;;8.96;nan;102166.88;4997347;28;20037;-50
2022/06/15 02:29:43;;;;;;;7.45;3.22;;;;;;;8.98;nan;102164.88;5004667;28;20584;-51
2022/06/15 02:32:10;;;;;;;7.00;3.50;;;;;;;8.93;nan;102162.78;4998828;28;20034;-49
2022/06/15 02:34:37;;;;;;;6.00;3.75;;;;;;;8.84;nan;102166.69;4986851;28;20053;-49
2022/06/15 02:37:05;;;;;;;6.57;3.50;;;;;;;8.79;nan;102169.94;4996597;28;20034;-49
2022/06/15 02:39:30;;;;;;;5.43;3.38;;;;;;;8.82;nan;102170.59;4987910;28;20488;-50
2022/06/15 02:41:58;;;;;;;4.55;3.20;;;;;;;8.91;nan;102164.81;4994383;28;20112;-52
2022/06/15 02:44:25;;;;;;;6.43;2.83;;;;;;;8.97;nan;102163.19;4991243;28;20030;-51
2022/06/15 02:46:52;;;;;;;3.55;2.63;;;;;;;9.00;nan;102162.81;4996034;28;20030;-49
2022/06/15 02:49:18;;;;;;;3.88;2.85;;;;;;;8.94;nan;102171.63;4992285;28;20395;-50
2022/06/15 02:51:54;;;;;;;7.70;3.25;;;;;;;8.90;nan;102162.34;4995205;28;20125;-50
2022/06/15 02:54:43;;;;;;;9.52;3.30;;;;;;;8.79;nan;102164.59;4991220;28;20072;-50
2022/06/15 02:57:11;;;;;;;5.43;3.22;;;;;;;8.82;nan;102167.91;4998568;28;20026;-50
2022/06/15 02:59:37;;;;;;;7.00;3.17;;;;;;;8.82;nan;102167.91;4994678;28;20391;-49
2022/06/15 03:02:03;;;;;;;6.30;3.50;;;;;;;8.81;nan;102171.59;4995754;28;20487;-50
2022/06/15 03:04:29;;;;;;;5.35;3.50;;;;;;;8.79;nan;102169.94;4992108;28;20036;-49
2022/06/15 03:06:55;;;;;;;11.32;3.92;;;;;;;8.77;nan;102169.31;4994816;28;20210;-49
2022/06/15 03:09:21;;;;;;;5.10;3.42;;;;;;;8.76;nan;102167.66;4995649;28;20454;-49
2022/06/15 03:11:46;;;;;;;7.82;4.07;;;;;;;8.81;nan;102169.75;4991637;28;20034;-51
2022/06/15 03:14:14;;;;;;;7.13;4.20;;;;;;;8.86;nan;102166.47;4997791;28;20034;-50
2022/06/15 03:16:43;;;;;;;6.53;4.00;;;;;;;8.89;nan;102174.91;4990720;28;20026;-49
2022/06/15 03:19:09;;;;;;;6.53;4.00;;;;;;;8.92;nan;102176.34;4997725;28;20036;-49
2022/06/15 03:21:35;;;;;;;9.48;4.53;;;;;;;8.93;nan;102176.13;4993313;28;20062;-49
2022/06/15 03:24:00;;;;;;;9.60;4.97;;;;;;;8.94;nan;102179.63;4995137;28;20081;-50
2022/06/15 03:26:26;;;;;;;7.55;4.10;;;;;;;8.96;nan;102170.38;4995506;28;20109;-50
2022/06/15 03:28:51;;;;;;;7.40;3.63;;;;;;;8.95;nan;102168.75;4994542;28;20037;-49
2022/06/15 03:31:17;;;;;;;7.07;3.75;;;;;;;8.94;nan;102176.97;4991681;28;20593;-49
2022/06/15 03:33:42;;;;;;;7.07;3.58;;;;;;;8.95;nan;102181.28;4996117;28;20533;-50
2022/06/15 03:36:08;;;;;;;5.88;3.92;;;;;;;8.95;nan;102178.59;4994517;28;20618;-52
2022/06/15 03:38:33;;;;;;;6.13;3.42;;;;;;;8.93;nan;102176.13;5001752;28;20104;-52
2022/06/15 03:40:59;;;;;;;5.07;4.18;;;;;;;8.96;nan;102172.22;4993081;28;20037;-49
2022/06/15 03:43:25;;;;;;;10.85;4.15;;;;;;;9.01;nan;102180.50;4987561;28;20277;-51
2022/06/15 03:45:50;;;;;;;9.77;5.50;;;;;;;9.05;nan;102177.19;4995205;28;20113;-52
2022/06/15 03:48:16;;;;;;;11.80;5.28;;;;;;;9.10;nan;102173.91;4993429;28;20026;-49
2022/06/15 03:50:42;;;;;;;6.85;5.10;;;;;;;9.13;nan;102184.19;4994963;28;20350;-49
2022/06/15 03:53:09;;;;;;;8.52;4.38;;;;;;;9.19;nan;102178.06;4990242;28;20478;-51
2022/06/15 03:55:35;;;;;;;10.93;5.57;;;;;;;9.25;nan;102184.44;5001591;28;20044;-49
2022/06/15 03:58:01;;;;;;;11.10;5.25;;;;;;;9.30;nan;102180.09;4992406;28;20022;-49
2022/06/15 04:00:29;;;;;;;11.38;5.05;;;;;;;9.36;nan;102181.97;5004700;28;20044;-51
2022/06/15 04:02:55;;;;;;;12.20;4.90;;;;;;;9.49;nan;102180.31;5003867;28;20076;-49
2022/06/15 04:05:25;;;;;;;10.52;5.07;;;;;;;9.57;nan;102183.63;4998255;28;20424;-49
2022/06/15 04:10:35;;;;;;;9.45;5.28;;;;;;;9.68;nan;102176.81;4999403;28;20037;-50
2022/06/15 04:13:01;;;;;;;7.47;5.32;;;;;;;9.76;nan;102176.63;4995727;28;20030;-50
2022/06/15 04:15:27;;;;;;;7.55;5.78;;;;;;;9.86;nan;102179.66;4999110;28;20064;-50
2022/06/15 04:17:53;;;;;;;8.50;6.63;;;;;;;9.93;nan;102168.97;5005280;28;20509;-49
2022/06/15 04:20:36;;;;;;;10.73;6.78;;;;;;;10.04;nan;102180.88;5000597;28;20042;-51
2022/06/15 04:23:08;;;;;;;10.20;6.72;;;;;;;10.12;nan;102178.81;4998332;28;20034;-49
2022/06/15 04:25:37;;;;;;;7.10;5.75;;;;;;;10.16;nan;102174.69;5004019;28;20121;-49
2022/06/15 04:28:05;;;;;;;7.97;6.38;;;;;;;10.33;nan;102182.28;5006629;28;20022;-49
2022/06/15 04:30:31;;;;;;;10.85;6.10;;;;;;;10.40;nan;102181.22;5002376;28;20034;-50
2022/06/15 04:32:57;;;;;;;8.70;5.70;;;;;;;10.49;nan;102185.31;5005606;28;20499;-50
2022/06/15 04:35:23;;;;;;;8.10;5.93;;;;;;;10.53;nan;102178.50;4996932;28;20062;-50
2022/06/15 04:37:49;;;;;;;9.13;5.28;;;;;;;10.59;nan;102185.69;5002689;28;20026;-49
2022/06/15 04:40:15;;;;;;;6.90;5.00;;;;;;;10.64;nan;102179.69;5005330;28;20498;-49
2022/06/15 04:42:41;;;;;;;6.72;5.30;;;;;;;10.75;nan;102181.69;5004789;28;20498;-50
2022/06/15 04:45:09;;;;;;;7.10;4.93;;;;;;;10.87;nan;102179.97;5000420;28;20172;-50
2022/06/15 04:47:36;;;;;;;6.13;5.13;;;;;;;10.99;nan;102174.75;5005392;28;20072;-49
2022/06/15 04:50:02;;;;;;;7.95;5.60;;;;;;;11.09;nan;102169.72;5005110;28;20026;-50
2022/06/15 04:52:28;;;;;;;11.60;5.63;;;;;;;11.17;nan;102177.53;4995751;28;20029;-49
2022/06/15 04:54:53;;;;;;;6.90;5.22;;;;;;;11.28;nan;102172.47;4999667;28;20026;-52
2022/06/15 04:57:19;;;;;;;7.93;5.30;;;;;;;11.39;nan;102171.78;5004842;28;20140;-50
2022/06/15 04:59:44;;;;;;;6.60;4.85;;;;;;;11.45;nan;102163.66;5005290;28;20026;-51
2022/06/15 05:02:11;;;;;;;8.15;5.30;;;;;;;11.56;nan;102167.50;5005798;28;20036;-50
2022/06/15 05:04:36;;;;;;;7.50;4.70;;;;;;;11.67;nan;102176.69;5004793;28;20029;-52
2022/06/15 05:07:02;;;;;;;6.72;4.60;;;;;;;11.74;nan;102167.56;5005302;28;20491;-49
2022/06/15 05:09:28;;;;;;;9.52;5.30;;;;;;;11.85;nan;102170.56;5001179;28;20029;-49
2022/06/15 05:11:57;;;;;;;8.85;5.80;;;;;;;11.93;nan;102176.50;4998629;28;20416;-49
2022/06/15 05:14:22;;;;;;;9.60;5.13;;;;;;;12.00;nan;102168.34;5002294;28;20038;-49
2022/06/15 05:16:48;;;;;;;9.02;4.95;;;;;;;12.06;nan;102172.84;4997792;28;20029;-52
2022/06/15 05:19:13;;;;;;;6.68;5.10;;;;;;;12.15;nan;102170.69;4995849;28;20040;-49
2022/06/15 05:21:41;;;;;;;6.97;4.43;;;;;;;12.17;nan;102171.28;4999638;28;20034;-52
2022/06/15 05:24:06;;;;;;;8.55;4.53;;;;;;;12.28;nan;102181.28;4997921;28;20018;-49
2022/06/15 05:26:32;;;;;;;6.38;4.80;;;;;;;12.35;nan;102169.41;5003629;28;20519;-51
2022/06/15 05:28:58;;;;;;;8.02;5.00;;;;;;;12.50;nan;102170.88;4999281;28;20034;-51
2022/06/15 05:31:23;;;;;;;7.30;4.70;;;;;;;12.64;nan;102186.63;4994654;28;20442;-49
2022/06/15 05:33:56;;;;;;;7.40;4.28;;;;;;;12.79;nan;102182.72;5002356;28;20021;-49
2022/06/15 05:36:29;;;;;;;7.15;4.07;;;;;;;12.91;nan;102184.38;4998245;28;20052;-49
2022/06/15 05:38:55;;;;;;;8.32;4.20;;;;;;;13.08;nan;102189.13;5000148;28;20029;-52
2022/06/15 05:41:20;;;;;;;7.40;4.00;;;;;;;13.18;nan;102184.88;4998238;28;20030;-49
2022/06/15 05:44:46;;;;;;;8.68;4.07;;;;;;;13.29;nan;102180.56;5001366;28;20024;-50
2022/06/15 05:46:42;;;;;;;6.83;3.20;;;;;;;13.45;nan;102181.75;4977374;28;20061;-51
2022/06/15 05:49:10;;;;;;;4.93;3.30;;;;;;;13.57;nan;102183.41;4997235;28;20178;-51
2022/06/15 05:51:36;;;;;;;7.65;3.42;;;;;;;13.71;nan;102184.00;4997429;28;20029;-50
2022/06/15 05:54:02;;;;;;;4.47;2.53;;;;;;;13.85;nan;102176.53;4998511;28;20422;-51
2022/06/15 05:56:27;;;;;;;5.57;3.20;;;;;;;14.01;nan;102173.13;4995909;28;20034;-50
2022/06/15 05:58:53;;;;;;;5.43;3.20;;;;;;;14.12;nan;102174.97;4992882;28;20515;-50
2022/06/15 06:01:34;;;;;;;5.55;3.30;;;;;;;14.26;nan;102180.09;4996370;28;20041;-49
2022/06/15 06:03:59;;;;;;;5.57;3.22;;;;;;;14.42;nan;102171.28;5002897;28;20030;-49
2022/06/15 06:06:26;;;;;;;7.47;2.70;;;;;;;14.58;nan;102175.94;5002070;28;20031;-50
2022/06/15 06:08:53;;;;;;;7.43;3.00;;;;;;;14.71;nan;102175.63;4997928;28;21409;-49
2022/06/15 06:11:19;;;;;;;8.18;3.55;;;;;;;14.84;nan;102174.53;4998165;28;20037;-49
2022/06/15 06:13:45;;;;;;;9.30;2.88;;;;;;;14.93;nan;102174.97;4995842;28;20108;-49
2022/06/15 06:16:11;;;;;;;6.00;2.40;;;;;;;15.05;nan;102167.63;4999734;28;20144;-50
2022/06/15 06:18:36;;;;;;;8.07;2.80;;;;;;;15.19;nan;102174.34;5001747;28;20029;-50
2022/06/15 06:21:03;;;;;;;7.32;2.53;;;;;;;15.26;nan;102175.03;5001853;28;20397;-50
2022/06/15 06:23:29;;;;;;;5.78;2.15;;;;;;;15.28;nan;102182.88;4999582;28;20488;-50
2022/06/15 06:25:54;;;;;;;9.05;2.20;;;;;;;15.46;nan;102173.72;4998068;28;20041;-52
2022/06/15 06:28:26;;;;;;;4.68;2.40;;;;;;;15.61;nan;102177.50;4995585;28;20423;-49
2022/06/15 06:30:53;;;;;;;2.92;2.17;;;;;;;15.77;nan;102175.84;4999497;28;21027;-50
2022/06/15 06:33:18;;;;;;;3.03;2.00;;;;;;;15.96;nan;102184.47;4995127;28;20487;-52
2022/06/15 06:35:45;;;;;;;6.90;2.88;;;;;;;16.11;nan;102181.19;4998252;28;20041;-50
2022/06/15 06:38:12;;;;;;;3.33;2.10;;;;;;;16.19;nan;102178.06;4995945;28;20030;-50
2022/06/15 06:40:38;;;;;;;8.85;2.40;;;;;;;16.25;nan;102183.28;5002588;28;20443;-51
2022/06/15 06:43:04;;;;;;;3.72;2.10;;;;;;;16.31;nan;102189.56;5000430;28;20033;-49
2022/06/15 06:45:29;;;;;;;5.88;2.55;;;;;;;16.40;nan;102184.53;5003323;28;20482;-50
2022/06/15 06:47:56;;;;;;;4.47;2.00;;;;;;;16.58;nan;102187.72;5000907;28;20021;-50
2022/06/15 06:50:23;;;;;;;5.80;2.45;;;;;;;16.79;nan;102188.00;4996547;28;20522;-50
2022/06/15 06:52:49;;;;;;;5.07;2.13;;;;;;;16.95;nan;102176.25;4998460;28;20111;-50
2022/06/15 06:55:15;;;;;;;6.18;1.90;;;;;;;17.01;nan;102180.63;4992445;28;20034;-50
2022/06/15 06:57:40;;;;;;;3.65;1.90;;;;;;;17.21;nan;102180.00;5000363;28;20096;-50
2022/06/15 07:00:07;;;;;;;3.97;1.80;;;;;;;17.39;nan;102170.66;5003777;28;20506;-50
2022/06/15 07:02:32;;;;;;;2.53;1.80;;;;;;;17.50;nan;102178.63;5001566;28;20037;-51
2022/06/15 07:04:58;;;;;;;3.85;1.90;;;;;;;17.62;nan;102178.44;5000267;28;20235;-50
2022/06/15 07:07:23;;;;;;;5.60;2.20;;;;;;;17.69;nan;102187.19;4998024;28;20025;-50
2022/06/15 07:09:49;;;;;;;3.55;1.92;;;;;;;17.79;nan;102179.13;4996264;28;20041;-50
2022/06/15 07:12:14;;;;;;;5.05;1.60;;;;;;;17.78;nan;102182.94;5000773;28;20061;-50
2022/06/15 07:14:40;;;;;;;2.22;1.52;;;;;;;17.97;nan;102179.78;5001230;28;20029;-51
2022/06/15 07:17:05;;;;;;;3.90;1.50;;;;;;;18.06;nan;102180.91;4997354;28;20027;-50
2022/06/15 07:19:31;;;;;;;3.88;1.58;;;;;;;18.08;nan;102181.44;4995801;28;20034;-50
2022/06/15 07:21:57;;;;;;;2.13;1.67;;;;;;;18.16;nan;102164.69;4997608;28;20086;-51
2022/06/15 07:24:22;;;;;;;3.92;1.50;;;;;;;18.09;nan;102172.22;4993682;28;20030;-52
2022/06/15 07:26:48;;;;;;;7.18;2.33;;;;;;;18.06;nan;102172.75;4998137;28;20034;-50
2022/06/15 07:29:17;;;;;;;4.10;1.60;;;;;;;17.97;nan;102177.06;5005539;28;20029;-50
2022/06/15 07:31:55;;;;;;;4.28;1.73;;;;;;;17.96;nan;102176.25;5001058;28;20129;-51
2022/06/15 07:34:21;;;;;;;5.10;1.40;;;;;;;18.01;nan;102172.75;5002551;28;20072;-50
2022/06/15 07:36:48;;;;;;;4.57;1.42;;;;;;;18.07;nan;102174.41;5000195;28;20064;-49
2022/06/15 07:39:16;;;;;;;4.28;1.50;;;;;;;18.08;nan;102166.00;4998613;28;20041;-52
2022/06/15 07:41:43;;;;;;;3.42;1.42;;;;;;;18.18;nan;102161.72;5004497;28;20063;-52
2022/06/15 07:44:09;;;;;;;4.05;1.63;;;;;;;18.19;nan;102158.72;5008487;28;20053;-52
2022/06/15 07:46:34;;;;;;;6.35;1.63;;;;;;;18.16;nan;102163.88;4999527;28;20050;-52
2022/06/15 07:51:50;;;;;;;3.67;1.50;;;;;;;18.04;nan;102172.22;5008377;28;20095;-49
2022/06/15 07:54:17;;;;;;;2.42;1.35;;;;;;;18.12;nan;102174.41;5003598;28;20030;-48
2022/06/15 07:56:43;;;;;;;2.63;1.00;;;;;;;18.18;nan;102161.72;5000134;28;20030;-49
2022/06/15 07:59:08;;;;;;;3.67;1.38;;;;;;;18.21;nan;102158.47;5001715;28;20503;-49
2022/06/15 08:01:35;;;;;;;4.03;1.20;;;;;;;18.27;nan;102165.53;5001685;28;20037;-50
2022/06/15 08:04:01;;;;;;;3.78;1.40;;;;;;;18.31;nan;102161.19;5001139;28;20034;-50
2022/06/15 08:06:29;;;;;;;4.53;1.40;;;;;;;18.36;nan;102163.97;5000056;28;20040;-50
2022/06/15 08:08:54;;;;;;;2.42;1.60;;;;;;;18.37;nan;102165.59;4996112;28;20025;-52
2022/06/15 08:11:20;;;;;;;3.25;1.35;;;;;;;18.34;nan;102164.22;5003273;28;20033;-51
2022/06/15 08:13:46;;;;;;;1.67;0.93;;;;;;;18.40;nan;102163.16;5003646;28;20037;-50
2022/06/15 08:16:14;;;;;;;2.05;1.02;;;;;;;18.50;nan;102167.00;5000425;28;20025;-50
